Love Boat — OT3861 — position and weather

sailwx.info

Track history (hours):
 
Tides and Currents Weather Stations Pressure Air Temp Water Temp Dewpoint Dewpoint Depression Visibility Wind Speed Wind Dir Waves Ship Positions

Love Boat

Last reported at 2015-Mar-02 17:23 UTC. Time now 2015-Mar-05 18:47 UTC.
Position N 50°54' E 006°59'.

Length 110 m.

Type: Ship. MMSI: 205386190.

Date/timePositionNaut miles runAvg speedWind from/ knotsBaromVisibWave heightAir tempDewpointWater temp
2015-Mar-02 17:23N 50°54' E 006°59'14 3.6
2015-Mar-02 13:33N 51°07' E 006°52'3 2.6
2015-Mar-02 12:32N 51°09' E 006°49'3 2.9
2015-Mar-02 11:33N 51°11' E 006°46'3 2.9
2015-Mar-02 10:33N 51°14' E 006°44'2 2.0
2015-Mar-02 09:22N 51°16' E 006°42'34 3.1
2015-Mar-01 22:10N 51°47' E 006°19'3 5.0
2015-Mar-01 21:34N 51°49' E 006°16'6 4.8
2015-Mar-01 20:14N 51°51' E 006°06'9 4.3
2015-Mar-01 18:07N 51°51' E 005°51'3 5.5
2015-Mar-01 17:33N 51°53' E 005°47'6 5.5
2015-Mar-01 16:33N 51°54' E 005°38'6 5.6
2015-Mar-01 15:34N 51°53' E 005°29'5 5.4
2015-Mar-01 14:34N 51°50' E 005°23'5 4.6
2015-Mar-01 13:33N 51°49' E 005°16'6 5.7
2015-Mar-01 12:34N 51°49' E 005°07'6 6.4
2015-Mar-01 11:33N 51°50' E 004°56'7 7.1
2015-Mar-01 10:33N 51°49' E 004°45'6 5.9
2015-Mar-01 09:33N 51°48' E 004°35'7 6.5
2015-Mar-01 08:34N 51°50' E 004°25'7 6.8
2015-Mar-01 07:33N 51°52' E 004°14'7 6.9
2015-Mar-01 06:33N 51°56' E 004°05'2 1.6
2015-Mar-01 05:18N 51°56' E 004°02'0 0.0
2015-Mar-01 04:33N 51°56' E 004°02'0 0.1
2015-Mar-01 03:33N 51°56' E 004°02'0 0.0
2015-Mar-01 02:33N 51°56' E 004°02'0 0.0
2015-Mar-01 01:33N 51°56' E 004°02'0 0.0
2015-Mar-01 00:33N 51°56' E 004°02'0 0.0
2015-Feb-28 23:33N 51°56' E 004°02'0 0.0
2015-Feb-28 22:33N 51°56' E 004°02'0 0.0
2015-Feb-28 21:30N 51°56' E 004°02'0 0.0
2015-Feb-28 20:33N 51°56' E 004°02'0 0.0
2015-Feb-28 19:33N 51°56' E 004°02'0 0.0
2015-Feb-28 18:33N 51°56' E 004°02'0 0.0
2015-Feb-28 17:32N 51°56' E 004°02'0 0.0
2015-Feb-28 16:31N 51°56' E 004°02'0 0.0
2015-Feb-28 15:32N 51°56' E 004°02'0 0.0
2015-Feb-28 14:33N 51°56' E 004°02'0 0.0
2015-Feb-28 13:33N 51°56' E 004°02'0 0.0
2015-Feb-28 12:33N 51°56' E 004°02'0 0.0
2015-Feb-28 11:33N 51°56' E 004°02'0 0.0
2015-Feb-28 10:33N 51°56' E 004°02'7 7.4
2015-Feb-28 09:33N 51°54' E 004°13'8 8.4
2015-Feb-28 08:33N 51°50' E 004°26'8 7.6
2015-Feb-28 07:34N 51°48' E 004°38'7 6.7
2015-Feb-28 06:32N 51°42' E 004°33'4 3.3
2015-Feb-28 05:21N 51°42' E 004°26'0 0.0
2015-Feb-28 04:30N 51°42' E 004°26'0 0.0
2015-Feb-28 03:29N 51°42' E 004°26'0 0.0
2015-Feb-28 02:33N 51°42' E 004°26'0 0.0
2015-Feb-28 01:25N 51°42' E 004°26'0 0.0
2015-Feb-28 00:15N 51°42' E 004°26'0 0.0
2015-Feb-27 23:30N 51°42' E 004°26'0 0.0
2015-Feb-27 22:32N 51°42' E 004°26'2 2.2
2015-Feb-27 21:25N 51°41' E 004°23'8 8.7
2015-Feb-27 20:33N 51°37' E 004°12'7 7.3
2015-Feb-27 19:33N 51°30' E 004°13'1 1.5
2015-Feb-27 18:33N 51°30' E 004°16'0 0.0
2015-Feb-27 17:33N 51°30' E 004°16'0 0.0
2015-Feb-27 16:32N 51°30' E 004°15'0 0.0
2015-Feb-27 15:33N 51°30' E 004°15'0 0.0
2015-Feb-27 14:33N 51°30' E 004°15'0 0.0
2015-Feb-27 13:33N 51°30' E 004°15'0 0.0
2015-Feb-27 12:33N 51°30' E 004°15'0 0.0
2015-Feb-27 11:33N 51°30' E 004°15'0 0.0
2015-Feb-27 10:33N 51°30' E 004°15'0 0.0
2015-Feb-27 09:33N 51°30' E 004°15'0 0.0
2015-Feb-27 08:33N 51°30' E 004°15'0 0.0
2015-Feb-27 07:33N 51°30' E 004°15'0 0.0
2015-Feb-27 06:33N 51°30' E 004°16'0 0.0
2015-Feb-27 05:33N 51°30' E 004°16'0 0.0
2015-Feb-27 04:33N 51°30' E 004°16'0 0.0
2015-Feb-27 03:33N 51°30' E 004°16'0 0.0
2015-Feb-27 02:33N 51°30' E 004°16'0 0.0
2015-Feb-27 01:33N 51°30' E 004°15'0 0.0
2015-Feb-27 00:33N 51°30' E 004°16'0 0.0
2015-Feb-26 23:33N 51°30' E 004°16'0 0.0
2015-Feb-26 22:31N 51°30' E 004°16'0 0.0
2015-Feb-26 21:32N 51°30' E 004°16'0 0.0
2015-Feb-26 20:33N 51°30' E 004°16'0 0.0
2015-Feb-26 19:33N 51°30' E 004°16'0 0.2
2015-Feb-26 18:33N 51°30' E 004°15'0 0.0
2015-Feb-26 17:31N 51°30' E 004°15'0 0.0
2015-Feb-26 16:33N 51°30' E 004°15'0 0.0
2015-Feb-26 15:33N 51°30' E 004°15'0 0.0
2015-Feb-26 14:33N 51°30' E 004°15'0 0.0
2015-Feb-26 13:33N 51°30' E 004°15'0 0.0
2015-Feb-26 12:33N 51°30' E 004°15'0 0.0
2015-Feb-26 11:32N 51°30' E 004°15'0 0.0
2015-Feb-26 10:33N 51°30' E 004°15'0 0.0
2015-Feb-26 09:32N 51°30' E 004°15'0 0.0
2015-Feb-26 08:32N 51°30' E 004°15'0 0.0
2015-Feb-26 07:33N 51°30' E 004°15'0 0.0
2015-Feb-26 06:33N 51°30' E 004°15'0 0.0
2015-Feb-26 05:30N 51°30' E 004°15'0 0.0
2015-Feb-26 04:33N 51°30' E 004°15'0 0.0
2015-Feb-26 03:32N 51°30' E 004°15'0 0.0
2015-Feb-26 02:33N 51°30' E 004°15'0 0.0
2015-Feb-26 01:31N 51°30' E 004°15'0 0.0
2015-Feb-26 00:33N 51°30' E 004°15'0 0.0
2015-Feb-25 23:33N 51°30' E 004°15'0 0.0
2015-Feb-25 22:32N 51°30' E 004°15'0 0.0
2015-Feb-25 21:32N 51°30' E 004°15'0 0.0
2015-Feb-25 20:32N 51°30' E 004°15'0 0.0
2015-Feb-25 19:33N 51°30' E 004°15'0 0.0
2015-Feb-25 18:33N 51°30' E 004°15'0 0.0
2015-Feb-25 17:33N 51°30' E 004°15'0 0.0
2015-Feb-25 16:33N 51°30' E 004°15'0 0.0
2015-Feb-25 15:22N 51°30' E 004°15'0 0.0
2015-Feb-25 14:32N 51°30' E 004°15'0 0.0
2015-Feb-25 13:33N 51°30' E 004°15'0 0.0
2015-Feb-25 12:32N 51°30' E 004°15'0 0.0
2015-Feb-25 11:30N 51°30' E 004°15'0 0.0
2015-Feb-25 10:33N 51°30' E 004°15'0 0.0
2015-Feb-25 09:33N 51°30' E 004°15'0 0.0
2015-Feb-25 08:33N 51°30' E 004°15'0 0.0
2015-Feb-25 07:33N 51°30' E 004°15'0 0.0
2015-Feb-25 06:32N 51°30' E 004°15'0 0.0
2015-Feb-25 05:33N 51°30' E 004°15'0 0.0
2015-Feb-25 04:33N 51°30' E 004°15'0 0.0
2015-Feb-25 03:33N 51°30' E 004°15'0 0.0
2015-Feb-25 02:30N 51°30' E 004°15'0 0.0
2015-Feb-25 01:33N 51°30' E 004°15'0 0.0
2015-Feb-25 00:33N 51°30' E 004°15'0 0.0
2015-Feb-24 23:32N 51°30' E 004°15'0 0.0
2015-Feb-24 22:33N 51°30' E 004°15'0 0.0
2015-Feb-24 21:33N 51°30' E 004°15'0 0.0
2015-Feb-24 20:33N 51°30' E 004°15'0 0.0
2015-Feb-24 19:33N 51°30' E 004°15'0 0.0
2015-Feb-24 18:33N 51°30' E 004°15'0 0.0
2015-Feb-24 17:32N 51°30' E 004°15'0 0.0
2015-Feb-24 16:32N 51°30' E 004°15'0 0.0
2015-Feb-24 15:30N 51°30' E 004°15'0 0.0
2015-Feb-24 14:33N 51°30' E 004°15'0 0.0
2015-Feb-24 13:33N 51°30' E 004°15'0 0.0
2015-Feb-24 12:33N 51°30' E 004°15'0 0.0
2015-Feb-24 11:33N 51°30' E 004°15'0 0.0
2015-Feb-24 10:33N 51°30' E 004°15'0 0.0
2015-Feb-24 09:33N 51°30' E 004°15'0 0.0
2015-Feb-24 08:33N 51°30' E 004°15'0 0.0
2015-Feb-24 07:33N 51°30' E 004°15'0 0.0
2015-Feb-24 06:33N 51°30' E 004°15'0 0.0
2015-Feb-24 05:29N 51°30' E 004°15'0 0.0
2015-Feb-24 04:30N 51°30' E 004°15'0 0.0
2015-Feb-24 03:33N 51°30' E 004°15'0 0.0
2015-Feb-24 02:33N 51°30' E 004°15'0 0.0
2015-Feb-24 01:32N 51°30' E 004°15'0 0.0
2015-Feb-24 00:26N 51°30' E 004°15'0 0.0
2015-Feb-23 23:29N 51°30' E 004°15'0 0.0
2015-Feb-23 22:31N 51°30' E 004°15'0 0.0
2015-Feb-23 21:27N 51°30' E 004°15'0 0.0
2015-Feb-23 20:32N 51°30' E 004°15'0 0.0
2015-Feb-23 19:33N 51°30' E 004°15'1 0.8
2015-Feb-23 18:33N 51°30' E 004°14'6 5.6
2015-Feb-23 17:33N 51°35' E 004°12'7 6.1
2015-Feb-23 16:22N 51°40' E 004°21'3 3.4
2015-Feb-23 15:27N 51°42' E 004°25'6 6.4
2015-Feb-23 14:31N 51°42' E 004°34'6 6.2
2015-Feb-23 13:33N 51°45' E 004°43'6 5.6
2015-Feb-23 12:33N 51°48' E 004°51'7 6.5
2015-Feb-23 11:33N 51°49' E 005°01'7 7.4
2015-Feb-23 10:33N 51°49' E 005°13'7 6.7
2015-Feb-23 09:33N 51°50' E 005°24'7 7.4
2015-Feb-23 08:33N 51°54' E 005°34'9 8.3
2015-Feb-23 07:25N 51°52' E 005°49'20 6.4
2015-Feb-23 04:21N 51°47' E 006°19'0 0.0
2015-Feb-23 03:25N 51°47' E 006°19'0 0.0
2015-Feb-23 02:29N 51°47' E 006°19'0 0.0
2015-Feb-23 01:33N 51°47' E 006°19'0 0.0
2015-Feb-23 00:07N 51°47' E 006°19'31 4.5
2015-Feb-22 17:20N 51°20' E 006°43'5 6.9
2015-Feb-22 16:33N 51°15' E 006°45'4 4.3
2015-Feb-22 15:33N 51°11' E 006°47'5 5.3
2015-Feb-22 14:33N 51°07' E 006°53'  
Track history (hours):
 
Tides and Currents Weather Stations Pressure Air Temp Water Temp Dewpoint Dewpoint Depression Visibility Wind Speed Wind Dir Waves Ship Positions

Love Boat

Last reported at 2015-Mar-02 17:23 UTC. Time now 2015-Mar-05 18:47 UTC.
Position N 50°54' E 006°59'.

Length 110 m.

Type: Ship. MMSI: 205386190.

Date/timePositionNaut miles runAvg speedWind from/ knotsBaromVisibWave heightAir tempDewpointWater temp
2015-Mar-02 17:23N 50°54' E 006°59'14 3.6
2015-Mar-02 13:33N 51°07' E 006°52'3 2.6
2015-Mar-02 12:32N 51°09' E 006°49'3 2.9
2015-Mar-02 11:33N 51°11' E 006°46'3 2.9
2015-Mar-02 10:33N 51°14' E 006°44'2 2.0
2015-Mar-02 09:22N 51°16' E 006°42'34 3.1
2015-Mar-01 22:10N 51°47' E 006°19'3 5.0
2015-Mar-01 21:34N 51°49' E 006°16'6 4.8
2015-Mar-01 20:14N 51°51' E 006°06'9 4.3
2015-Mar-01 18:07N 51°51' E 005°51'3 5.5
2015-Mar-01 17:33N 51°53' E 005°47'6 5.5
2015-Mar-01 16:33N 51°54' E 005°38'6 5.6
2015-Mar-01 15:34N 51°53' E 005°29'5 5.4
2015-Mar-01 14:34N 51°50' E 005°23'5 4.6
2015-Mar-01 13:33N 51°49' E 005°16'6 5.7
2015-Mar-01 12:34N 51°49' E 005°07'6 6.4
2015-Mar-01 11:33N 51°50' E 004°56'7 7.1
2015-Mar-01 10:33N 51°49' E 004°45'6 5.9
2015-Mar-01 09:33N 51°48' E 004°35'7 6.5
2015-Mar-01 08:34N 51°50' E 004°25'7 6.8
2015-Mar-01 07:33N 51°52' E 004°14'7 6.9
2015-Mar-01 06:33N 51°56' E 004°05'2 1.6
2015-Mar-01 05:18N 51°56' E 004°02'0 0.0
2015-Mar-01 04:33N 51°56' E 004°02'0 0.1
2015-Mar-01 03:33N 51°56' E 004°02'0 0.0
2015-Mar-01 02:33N 51°56' E 004°02'0 0.0
2015-Mar-01 01:33N 51°56' E 004°02'0 0.0
2015-Mar-01 00:33N 51°56' E 004°02'0 0.0
2015-Feb-28 23:33N 51°56' E 004°02'0 0.0
2015-Feb-28 22:33N 51°56' E 004°02'0 0.0
2015-Feb-28 21:30N 51°56' E 004°02'0 0.0
2015-Feb-28 20:33N 51°56' E 004°02'0 0.0
2015-Feb-28 19:33N 51°56' E 004°02'0 0.0
2015-Feb-28 18:33N 51°56' E 004°02'0 0.0
2015-Feb-28 17:32N 51°56' E 004°02'0 0.0
2015-Feb-28 16:31N 51°56' E 004°02'0 0.0
2015-Feb-28 15:32N 51°56' E 004°02'0 0.0
2015-Feb-28 14:33N 51°56' E 004°02'0 0.0
2015-Feb-28 13:33N 51°56' E 004°02'0 0.0
2015-Feb-28 12:33N 51°56' E 004°02'0 0.0
2015-Feb-28 11:33N 51°56' E 004°02'0 0.0
2015-Feb-28 10:33N 51°56' E 004°02'7 7.4
2015-Feb-28 09:33N 51°54' E 004°13'8 8.4
2015-Feb-28 08:33N 51°50' E 004°26'8 7.6
2015-Feb-28 07:34N 51°48' E 004°38'7 6.7
2015-Feb-28 06:32N 51°42' E 004°33'4 3.3
2015-Feb-28 05:21N 51°42' E 004°26'0 0.0
2015-Feb-28 04:30N 51°42' E 004°26'0 0.0
2015-Feb-28 03:29N 51°42' E 004°26'0 0.0
2015-Feb-28 02:33N 51°42' E 004°26'0 0.0
2015-Feb-28 01:25N 51°42' E 004°26'0 0.0
2015-Feb-28 00:15N 51°42' E 004°26'0 0.0
2015-Feb-27 23:30N 51°42' E 004°26'0 0.0
2015-Feb-27 22:32N 51°42' E 004°26'2 2.2
2015-Feb-27 21:25N 51°41' E 004°23'8 8.7
2015-Feb-27 20:33N 51°37' E 004°12'7 7.3
2015-Feb-27 19:33N 51°30' E 004°13'1 1.5
2015-Feb-27 18:33N 51°30' E 004°16'0 0.0
2015-Feb-27 17:33N 51°30' E 004°16'0 0.0
2015-Feb-27 16:32N 51°30' E 004°15'0 0.0
2015-Feb-27 15:33N 51°30' E 004°15'0 0.0
2015-Feb-27 14:33N 51°30' E 004°15'0 0.0
2015-Feb-27 13:33N 51°30' E 004°15'0 0.0
2015-Feb-27 12:33N 51°30' E 004°15'0 0.0
2015-Feb-27 11:33N 51°30' E 004°15'0 0.0
2015-Feb-27 10:33N 51°30' E 004°15'0 0.0
2015-Feb-27 09:33N 51°30' E 004°15'0 0.0
2015-Feb-27 08:33N 51°30' E 004°15'0 0.0
2015-Feb-27 07:33N 51°30' E 004°15'0 0.0
2015-Feb-27 06:33N 51°30' E 004°16'0 0.0
2015-Feb-27 05:33N 51°30' E 004°16'0 0.0
2015-Feb-27 04:33N 51°30' E 004°16'0 0.0
2015-Feb-27 03:33N 51°30' E 004°16'0 0.0
2015-Feb-27 02:33N 51°30' E 004°16'0 0.0
2015-Feb-27 01:33N 51°30' E 004°15'0 0.0
2015-Feb-27 00:33N 51°30' E 004°16'0 0.0
2015-Feb-26 23:33N 51°30' E 004°16'0 0.0
2015-Feb-26 22:31N 51°30' E 004°16'0 0.0
2015-Feb-26 21:32N 51°30' E 004°16'0 0.0
2015-Feb-26 20:33N 51°30' E 004°16'0 0.0
2015-Feb-26 19:33N 51°30' E 004°16'0 0.2
2015-Feb-26 18:33N 51°30' E 004°15'0 0.0
2015-Feb-26 17:31N 51°30' E 004°15'0 0.0
2015-Feb-26 16:33N 51°30' E 004°15'0 0.0
2015-Feb-26 15:33N 51°30' E 004°15'0 0.0
2015-Feb-26 14:33N 51°30' E 004°15'0 0.0
2015-Feb-26 13:33N 51°30' E 004°15'0 0.0
2015-Feb-26 12:33N 51°30' E 004°15'0 0.0
2015-Feb-26 11:32N 51°30' E 004°15'0 0.0
2015-Feb-26 10:33N 51°30' E 004°15'0 0.0
2015-Feb-26 09:32N 51°30' E 004°15'0 0.0
2015-Feb-26 08:32N 51°30' E 004°15'0 0.0
2015-Feb-26 07:33N 51°30' E 004°15'0 0.0
2015-Feb-26 06:33N 51°30' E 004°15'0 0.0
2015-Feb-26 05:30N 51°30' E 004°15'0 0.0
2015-Feb-26 04:33N 51°30' E 004°15'0 0.0
2015-Feb-26 03:32N 51°30' E 004°15'0 0.0
2015-Feb-26 02:33N 51°30' E 004°15'0 0.0
2015-Feb-26 01:31N 51°30' E 004°15'0 0.0
2015-Feb-26 00:33N 51°30' E 004°15'0 0.0
2015-Feb-25 23:33N 51°30' E 004°15'0 0.0
2015-Feb-25 22:32N 51°30' E 004°15'0 0.0
2015-Feb-25 21:32N 51°30' E 004°15'0 0.0
2015-Feb-25 20:32N 51°30' E 004°15'0 0.0
2015-Feb-25 19:33N 51°30' E 004°15'0 0.0
2015-Feb-25 18:33N 51°30' E 004°15'0 0.0
2015-Feb-25 17:33N 51°30' E 004°15'0 0.0
2015-Feb-25 16:33N 51°30' E 004°15'0 0.0
2015-Feb-25 15:22N 51°30' E 004°15'0 0.0
2015-Feb-25 14:32N 51°30' E 004°15'0 0.0
2015-Feb-25 13:33N 51°30' E 004°15'0 0.0
2015-Feb-25 12:32N 51°30' E 004°15'0 0.0
2015-Feb-25 11:30N 51°30' E 004°15'0 0.0
2015-Feb-25 10:33N 51°30' E 004°15'0 0.0
2015-Feb-25 09:33N 51°30' E 004°15'0 0.0
2015-Feb-25 08:33N 51°30' E 004°15'0 0.0
2015-Feb-25 07:33N 51°30' E 004°15'0 0.0
2015-Feb-25 06:32N 51°30' E 004°15'0 0.0
2015-Feb-25 05:33N 51°30' E 004°15'0 0.0
2015-Feb-25 04:33N 51°30' E 004°15'0 0.0
2015-Feb-25 03:33N 51°30' E 004°15'0 0.0
2015-Feb-25 02:30N 51°30' E 004°15'0 0.0
2015-Feb-25 01:33N 51°30' E 004°15'0 0.0
2015-Feb-25 00:33N 51°30' E 004°15'0 0.0
2015-Feb-24 23:32N 51°30' E 004°15'0 0.0
2015-Feb-24 22:33N 51°30' E 004°15'0 0.0
2015-Feb-24 21:33N 51°30' E 004°15'0 0.0
2015-Feb-24 20:33N 51°30' E 004°15'0 0.0
2015-Feb-24 19:33N 51°30' E 004°15'0 0.0
2015-Feb-24 18:33N 51°30' E 004°15'0 0.0
2015-Feb-24 17:32N 51°30' E 004°15'0 0.0
2015-Feb-24 16:32N 51°30' E 004°15'0 0.0
2015-Feb-24 15:30N 51°30' E 004°15'0 0.0
2015-Feb-24 14:33N 51°30' E 004°15'0 0.0
2015-Feb-24 13:33N 51°30' E 004°15'0 0.0
2015-Feb-24 12:33N 51°30' E 004°15'0 0.0
2015-Feb-24 11:33N 51°30' E 004°15'0 0.0
2015-Feb-24 10:33N 51°30' E 004°15'0 0.0
2015-Feb-24 09:33N 51°30' E 004°15'0 0.0
2015-Feb-24 08:33N 51°30' E 004°15'0 0.0
2015-Feb-24 07:33N 51°30' E 004°15'0 0.0
2015-Feb-24 06:33N 51°30' E 004°15'0 0.0
2015-Feb-24 05:29N 51°30' E 004°15'0 0.0
2015-Feb-24 04:30N 51°30' E 004°15'0 0.0
2015-Feb-24 03:33N 51°30' E 004°15'0 0.0
2015-Feb-24 02:33N 51°30' E 004°15'0 0.0
2015-Feb-24 01:32N 51°30' E 004°15'0 0.0
2015-Feb-24 00:26N 51°30' E 004°15'0 0.0
2015-Feb-23 23:29N 51°30' E 004°15'0 0.0
2015-Feb-23 22:31N 51°30' E 004°15'0 0.0
2015-Feb-23 21:27N 51°30' E 004°15'0 0.0
2015-Feb-23 20:32N 51°30' E 004°15'0 0.0
2015-Feb-23 19:33N 51°30' E 004°15'1 0.8
2015-Feb-23 18:33N 51°30' E 004°14'6 5.6
2015-Feb-23 17:33N 51°35' E 004°12'7 6.1
2015-Feb-23 16:22N 51°40' E 004°21'3 3.4
2015-Feb-23 15:27N 51°42' E 004°25'6 6.4
2015-Feb-23 14:31N 51°42' E 004°34'6 6.2
2015-Feb-23 13:33N 51°45' E 004°43'6 5.6
2015-Feb-23 12:33N 51°48' E 004°51'7 6.5
2015-Feb-23 11:33N 51°49' E 005°01'7 7.4
2015-Feb-23 10:33N 51°49' E 005°13'7 6.7
2015-Feb-23 09:33N 51°50' E 005°24'7 7.4
2015-Feb-23 08:33N 51°54' E 005°34'9 8.3
2015-Feb-23 07:25N 51°52' E 005°49'20 6.4
2015-Feb-23 04:21N 51°47' E 006°19'0 0.0
2015-Feb-23 03:25N 51°47' E 006°19'0 0.0
2015-Feb-23 02:29N 51°47' E 006°19'0 0.0
2015-Feb-23 01:33N 51°47' E 006°19'0 0.0
2015-Feb-23 00:07N 51°47' E 006°19'31 4.5
2015-Feb-22 17:20N 51°20' E 006°43'5 6.9
2015-Feb-22 16:33N 51°15' E 006°45'4 4.3
2015-Feb-22 15:33N 51°11' E 006°47'5 5.3
2015-Feb-22 14:33N 51°07' E 006°53'  

Dump ship's entire track history